Solitude, Utah
Current Conditions -  °F | °C
As of 5:53 AM on Friday 24 Oct 2014 (Local Time) from KSLC Reporting Station
Few Clouds Few Clouds  
Wind Chill: 45°   Ceiling: Unl
Heat Index: 45°   Visibility: 10mi
Dew Point: 40°   Wind: 3mph
Humidity: 82%   Direction: NA
Pressure: 30.12"   Gusts: NA
Location:  40.6239°N, 111.817°W
Report Text: KSLC 241153Z VRB03KT 10SM FEW200 07/04 A3012 RMK AO2 SLP178 T00720044 10128 20061 53004 $
Loading
Personal Weather Stations






























Interactive Weather Map
Tropical Storm Tracking
New forecast layout! Learn more

10-Day Weather Forecast

Advertisements
Track Severe Weather on mobile